Weather History for Chesapeake, VA

Change the Weather History Date:

Monday, February 25, 2013

  Actual Average (KORF) Record (KORF)
Temperature  
Mean Temperature 36 °F 44 °F  
Max Temperature 42 °F 53 °F 81 °F (1930)
Min Temperature 30 °F 36 °F 15 °F (1914)
Degree Days  
Heating Degree Days 29 21  
Month to date heating degree days 566  
Since 1 July heating degree days 2508  
Cooling Degree Days 0 0  
Month to date cooling degree days 0  
Year to date cooling degree days 0  
Moisture  
Dew Point 26 °F    
Average Humidity 63    
Maximum Humidity 93    
Minimum Humidity 42    
Precipitation  
Precipitation 0.00 in 0.11 in 1.81 in (1934)
Month to date precipitation 2.78  
Year to date precipitation 6.18  
Snow  
Snow 0.00 in 0.00 in 6.40 in (1894)
Month to date snowfall 1.8  
Since 1 July snowfall 5.4  
Snow Depth -    
Sea Level Pressure  
Sea Level Pressure 30.18 in    
Wind  
Wind Speed 5 mph (North)    
Max Wind Speed 12 mph    
Max Gust Speed 22 mph    
Visibility 10 miles    
Events      
T = Trace of Precipitation, MM = Missing Value Source: NWS Daily Summary

Daily Weather History Graph

Daily Weather History Graph

Search for Another Location

Airport:

Trip Planner

Search our weather history database for the weather conditions in past years. The results will help you decide how hot, cold, wet, or windy it might be!

Date:

Astronomy

Feb. 25, 2013 Rise Set
Actual Time 6:40 AM EST 5:56 PM EST
Civil Twilight 6:14 AM EST 6:22 PM EST
Nautical Twilight 5:44 AM EST 6:52 PM EST
Astronomical Twilight 5:15 AM EST 7:22 PM EST
Moon 6:05 PM EST (2/25) 6:10 AM EST (2/25)
Length of Visible Light 12h 07m
Length of Day
11h 15m
Full, 100% of the Moon is Illuminated
Feb 25
Full
Feb 25
Full
Mar 4
Last Quarter
Mar 11
New
Mar 19
First Quarter

Hourly Weather History & Observations

Time (EST) Temp. Windchill Dew Point Humidity Pressure Visibility Wind Dir Wind Speed Gust Speed Precip Events Conditions
12:15 AM 39.2 °F 33.6 °F 26.6 °F 61% 30.08 in 10.0 mi North 8.1 mph 21.9 mph N/A   Clear
12:35 AM 39.2 °F 32.0 °F 26.6 °F 61% 30.10 in 10.0 mi North 11.5 mph 21.9 mph N/A   Clear
12:55 AM 39.2 °F 33.6 °F 26.6 °F 61% 30.11 in 10.0 mi North 8.1 mph - N/A   Clear
1:15 AM 39.2 °F 35.0 °F 26.6 °F 61% 30.12 in 10.0 mi NNW 5.8 mph - N/A   Clear
1:35 AM 37.4 °F 33.8 °F 24.8 °F 60% 30.12 in 10.0 mi North 4.6 mph - N/A   Clear
1:55 AM 37.4 °F 33.8 °F 24.8 °F 60% 30.12 in 10.0 mi NNW 4.6 mph - N/A   Clear
2:15 AM 37.4 °F 32.1 °F 23.0 °F 56% 30.13 in 10.0 mi North 6.9 mph - N/A   Clear
2:35 AM 35.6 °F - 24.8 °F 65% 30.12 in 10.0 mi Calm Calm - N/A   Clear
2:55 AM 35.6 °F 31.7 °F 24.8 °F 65% 30.12 in 10.0 mi North 4.6 mph - N/A   Clear
3:15 AM 35.6 °F 30.7 °F 24.8 °F 65% 30.13 in 10.0 mi NNW 5.8 mph - N/A   Clear
3:35 AM 35.6 °F 30.7 °F 21.2 °F 56% 30.13 in 10.0 mi North 5.8 mph - N/A   Clear
3:55 AM 35.6 °F 30.7 °F 21.2 °F 56% 30.12 in 10.0 mi North 5.8 mph - N/A   Clear
4:15 AM 35.6 °F 29.9 °F 21.2 °F 56% 30.11 in 10.0 mi North 6.9 mph - N/A   Clear
4:35 AM 35.6 °F 29.9 °F 21.2 °F 56% 30.13 in 10.0 mi North 6.9 mph - N/A   Clear
4:55 AM 35.6 °F 29.9 °F 21.2 °F 56% 30.12 in 10.0 mi North 6.9 mph - N/A   Clear
5:15 AM 35.6 °F 30.7 °F 21.2 °F 56% 30.13 in 10.0 mi North 5.8 mph - N/A   Clear
5:35 AM 35.6 °F 29.9 °F 21.2 °F 56% 30.15 in 10.0 mi NNW 6.9 mph - N/A   Clear
5:55 AM 35.6 °F 31.7 °F 21.2 °F 56% 30.15 in 10.0 mi North 4.6 mph - N/A   Clear
6:15 AM 35.6 °F - 23.0 °F 60% 30.16 in 10.0 mi Calm Calm - N/A   Clear
6:35 AM 33.8 °F - 23.0 °F 65% 30.16 in 10.0 mi Calm Calm - N/A   Clear
6:55 AM 33.8 °F - 23.0 °F 65% 30.16 in 10.0 mi Calm Calm - N/A   Clear
7:15 AM 33.8 °F - 24.8 °F 70% 30.16 in 10.0 mi Calm Calm - N/A   Clear
7:35 AM 35.6 °F - 24.8 °F 65% 30.18 in 10.0 mi Calm Calm - N/A   Clear
7:55 AM 35.6 °F - 26.6 °F 70% 30.18 in 10.0 mi Calm Calm - N/A   Clear
8:15 AM 35.6 °F - 26.6 °F 70% 30.18 in 10.0 mi Calm Calm - N/A   Clear
8:35 AM 37.4 °F 34.9 °F 26.6 °F 65% 30.19 in 10.0 mi NW 3.5 mph - N/A   Clear
8:55 AM 37.4 °F 32.8 °F 26.6 °F 65% 30.19 in 10.0 mi NNE 5.8 mph - N/A   Clear
9:15 AM 39.2 °F 33.6 °F 28.4 °F 65% 30.20 in 10.0 mi North 8.1 mph - N/A   Scattered Clouds
9:35 AM 39.2 °F 33.6 °F 28.4 °F 65% 30.21 in 10.0 mi NNE 8.1 mph - N/A   Scattered Clouds
9:55 AM 39.2 °F 33.0 °F 26.6 °F 61% 30.20 in 10.0 mi NNW 9.2 mph - N/A   Scattered Clouds
10:15 AM 39.2 °F 34.2 °F 26.6 °F 61% 30.21 in 10.0 mi NNE 6.9 mph - N/A   Clear
10:35 AM 42.8 °F 39.3 °F 26.6 °F 53% 30.22 in 10.0 mi NNE 5.8 mph - N/A   Scattered Clouds
10:55 AM 41.0 °F 37.1 °F 26.6 °F 57% 30.22 in 10.0 mi North 5.8 mph - N/A   Scattered Clouds
11:15 AM 41.0 °F 36.4 °F 26.6 °F 57% 30.22 in 10.0 mi North 6.9 mph - N/A   Scattered Clouds
11:35 AM 41.0 °F 35.8 °F 28.4 °F 61% 30.23 in 10.0 mi NNW 8.1 mph - N/A   Scattered Clouds
11:55 AM 42.8 °F 39.3 °F 26.6 °F 53% 30.22 in 10.0 mi NNE 5.8 mph - N/A   Scattered Clouds
12:15 PM 42.8 °F 37.5 °F 28.4 °F 57% 30.21 in 10.0 mi NNE 9.2 mph - N/A   Clear
12:35 PM 42.8 °F 38.6 °F 26.6 °F 53% 30.21 in 10.0 mi North 6.9 mph - N/A   Clear
12:55 PM 42.8 °F 37.5 °F 26.6 °F 53% 30.21 in 10.0 mi NNE 9.2 mph - N/A   Clear
1:15 PM 42.8 °F 38.6 °F 26.6 °F 53% 30.20 in 10.0 mi NNW 6.9 mph - N/A   Clear
1:35 PM 42.8 °F 38.6 °F 26.6 °F 53% 30.19 in 10.0 mi North 6.9 mph - N/A   Clear
1:55 PM 42.8 °F 39.3 °F 26.6 °F 53% 30.18 in 10.0 mi North 5.8 mph - N/A   Clear
2:15 PM 42.8 °F 38.6 °F 26.6 °F 53% 30.18 in 10.0 mi North 6.9 mph - N/A   Clear
2:35 PM 42.8 °F 39.3 °F 26.6 °F 53% 30.19 in 10.0 mi NNE 5.8 mph - N/A   Clear
2:55 PM 42.8 °F 40.1 °F 24.8 °F 49% 30.19 in 10.0 mi NNW 4.6 mph - N/A   Clear
3:15 PM 42.8 °F 41.1 °F 26.6 °F 53% 30.20 in 10.0 mi North 3.5 mph - N/A   Clear
3:35 PM 42.8 °F 38.6 °F 23.0 °F 46% 30.20 in 10.0 mi NNE 6.9 mph - N/A   Clear
3:55 PM 42.8 °F - 23.0 °F 46% 30.20 in 10.0 mi Calm Calm - N/A   Clear
4:15 PM 42.8 °F - 23.0 °F 46% 30.21 in 10.0 mi Calm Calm - N/A   Clear
4:35 PM 42.8 °F 40.1 °F 21.2 °F 42% 30.19 in 10.0 mi NNE 4.6 mph - N/A   Clear
4:55 PM 41.0 °F 39.0 °F 21.2 °F 45% 30.19 in 10.0 mi NE 3.5 mph - N/A   Clear
5:15 PM 41.0 °F - 23.0 °F 49% 30.19 in 10.0 mi Calm Calm - N/A   Clear
5:55 PM 41.0 °F - 23.0 °F 49% 30.21 in 10.0 mi Calm Calm - N/A   Clear
6:15 PM 39.2 °F - 26.6 °F 61% 30.21 in 10.0 mi Calm Calm - N/A   Clear
6:35 PM 39.2 °F - 28.4 °F 65% 30.22 in 10.0 mi Calm Calm - N/A   Clear
6:55 PM 37.4 °F - 28.4 °F 70% 30.23 in 10.0 mi Calm Calm - N/A   Clear
7:15 PM 39.2 °F - 26.6 °F 61% 30.23 in 10.0 mi Calm Calm - N/A   Clear
7:35 PM 37.4 °F - 30.2 °F 75% 30.23 in 10.0 mi Calm Calm - N/A   Clear
7:55 PM 35.6 °F - 30.2 °F 81% 30.23 in 10.0 mi Calm Calm - N/A   Clear
8:15 PM 35.6 °F - 28.4 °F 75% 30.22 in 10.0 mi Calm Calm - N/A   Clear
8:35 PM 33.8 °F - 28.4 °F 81% 30.23 in 10.0 mi Calm Calm - N/A   Clear
8:55 PM 33.8 °F - 28.4 °F 81% 30.23 in 10.0 mi Calm Calm - N/A   Clear
9:15 PM 32.0 °F - 28.4 °F 87% 30.23 in 10.0 mi Calm Calm - N/A   Clear
9:35 PM 32.0 °F - 28.4 °F 87% 30.23 in 10.0 mi Calm Calm - N/A   Clear
9:55 PM 32.0 °F - 28.4 °F 87% 30.22 in 10.0 mi Calm Calm - N/A   Clear
10:15 PM 32.0 °F - 28.4 °F 87% 30.22 in 10.0 mi Calm Calm - N/A   Clear
10:35 PM 30.2 °F - 26.6 °F 86% 30.20 in 10.0 mi Calm Calm - N/A   Clear
10:55 PM 32.0 °F - 28.4 °F 87% 30.21 in 10.0 mi Calm Calm - N/A   Clear
11:15 PM 30.2 °F - 28.4 °F 93% 30.19 in 10.0 mi Calm Calm - N/A   Clear
11:35 PM 30.2 °F - 28.4 °F 93% 30.19 in 10.0 mi Calm Calm - N/A   Clear
11:55 PM 30.2 °F - 28.4 °F 93% 30.19 in 10.0 mi Calm Calm - N/A   Clear